Ackley, IA (50601)

4:15 PM CDT on July 29, 2016 (GMT -0500)
Jensen Farm | | Change Station

Elev 1129 ft 42.50 °N, 93.20 °W | Updated 1 minute ago

Mostly Cloudy
Mostly Cloudy
71.4 °F
Feels Like 71.4 °F
N
2.0
Wind Variable Wind from NNE
Gusts 9.0 mph

Today
High -- | Low -- °F
--% Chance of Precip.
Yesterday
High -- | Low -- °F
Precip. -- in
Pressure 30.02 in
Visibility 10.0 miles
Clouds Mostly Cloudy 1800 ft
Mostly Cloudy 2600 ft
Dew Point Not available.
Humidity Not available.
Rainfall 0.02 in
Snow Depth Not available.
6:01 AM 8:34 PM
Waning Crescent, 19% visible
METAR KIFA 292055Z AUTO 03005KT 10SM BKN018 BKN026 22/18 A3002 RMK AO2 T02240182
Pressure 30.02 in
Visibility 10.0 miles
Clouds Mostly Cloudy 1800 ft
Mostly Cloudy 2600 ft
Dew Point Not available.
Humidity Not available.
Rainfall 0.02 in
Snow Depth Not available.
6:01 AM 8:34 PM
Waning Crescent, 19% visible
METAR KIFA 292055Z AUTO 03005KT 10SM BKN018 BKN026 22/18 A3002 RMK AO2 T02240182

10-Day Weather Forecast

Almanac

Astronomy

Jul. 29, 2016 Rise Set
Actual Time
Civil Twilight
Nautical Twilight
Astronomical Twilight
Moon
Length of Visible Light
Length of Day
Tomorrow will be .
, % of the Moon is Illuminated

Today's Extremes

State Highs State Lows

Community

WunderPhotos

Upload Photos

1,928,421 photos uploaded!

WunderBlog® & News

Nearby

Air Quality

  Air Quality AQ Index Pollutant
Not available.

Snow Depth

Station Depth Elevation

Earthquake Activity

City Distance Mag. Time & Date
Minimum magnitude displayed is 2.5.

Coastal Water Temperatures

Place Temperature

Stations

Nearby Weather Stations

Station Location Temp. Windchill Dew Point Humidity Wind Precip. Elev Updated Type
                   

Watches & Warnings

There are currently no watches in effect.